Time;durP1;ratioP1;P1;durP2;ratioP2;P2;SDS_P1;SDS_P2;PMS_P1;PMS_P2;Temp;Humidity;BMP_temperature;BMP_pressure;BME280_temperature;BME280_humidity;BME280_pressure;Samples;Min_cycle;Max_cycle;Signal;HPM_P1;HPM_P2
2023/02/07 00:00:18;;;;;;;;;;;19.10;49.60;;;;;;7778926;22;19903;-73
2023/02/07 00:03:19;;;;;;;;;;;19.10;49.70;;;;;;7788572;22;19903;-73
2023/02/07 00:06:21;;;;;;;;;;;19.10;49.70;;;;;;7788571;22;19904;-73
2023/02/07 00:09:22;;;;;;;;;;;19.10;49.70;;;;;;7784196;22;20307;-73
2023/02/07 00:12:22;;;;;;;;;;;19.10;49.70;;;;;;7788192;22;19914;-74
2023/02/07 00:15:23;;;;;;;;;;;19.10;49.70;;;;;;7788415;22;20244;-73
2023/02/07 00:18:24;;;;;;;;;;;19.10;49.70;;;;;;7778747;22;19911;-73
2023/02/07 00:21:25;;;;;;;;;;;19.10;49.70;;;;;;7788476;22;19988;-73
2023/02/07 00:24:25;;;;;;;;;;;19.10;49.70;;;;;;7787904;22;20296;-72
2023/02/07 00:27:26;;;;;;;;;;;19.10;49.70;;;;;;7788467;22;19910;-73
2023/02/07 00:30:26;;;;;;;;;;;19.10;49.70;;;;;;7787944;22;19934;-73
2023/02/07 00:33:27;;;;;;;;;;;19.10;49.70;;;;;;7788078;22;19911;-72
2023/02/07 00:36:28;;;;;;;;;;;19.00;49.60;;;;;;7788251;22;19903;-73
2023/02/07 00:39:29;;;;;;;;;;;19.10;49.70;;;;;;7788631;22;19904;-73
2023/02/07 00:42:30;;;;;;;;;;;19.10;49.70;;;;;;7787906;22;20626;-73
2023/02/07 00:45:30;;;;;;;;;;;19.10;49.60;;;;;;7788014;22;19943;-73
2023/02/07 00:48:31;;;;;;;;;;;19.10;49.60;;;;;;7788271;22;20323;-73
2023/02/07 00:51:32;;;;;;;;;;;19.10;49.60;;;;;;7787894;22;19910;-72
2023/02/07 00:54:33;;;;;;;;;;;19.10;49.70;;;;;;7788033;22;19915;-73
2023/02/07 00:57:33;;;;;;;;;;;19.10;49.60;;;;;;7788011;22;19903;-74
2023/02/07 01:00:33;;;;;;;;;;;19.10;49.60;;;;;;7787587;22;19911;-72
2023/02/07 01:03:34;;;;;;;;;;;19.10;49.70;;;;;;7783058;22;19907;-73
2023/02/07 01:06:35;;;;;;;;;;;19.10;49.60;;;;;;7783026;22;19903;-72
2023/02/07 01:09:36;;;;;;;;;;;19.10;49.70;;;;;;7788114;22;19911;-72
2023/02/07 01:12:37;;;;;;;;;;;19.10;49.70;;;;;;7787891;22;19927;-73
2023/02/07 01:15:39;;;;;;;;;;;19.10;49.60;;;;;;7787273;22;19957;-73
2023/02/07 01:18:39;;;;;;;;;;;19.10;49.70;;;;;;7787883;22;20438;-73
2023/02/07 01:21:40;;;;;;;;;;;19.10;49.70;;;;;;7787998;22;19907;-73
2023/02/07 01:24:40;;;;;;;;;;;19.10;49.70;;;;;;7787259;22;20290;-73
2023/02/07 01:27:40;;;;;;;;;;;19.00;49.50;;;;;;7787924;22;20216;-73
2023/02/07 01:30:42;;;;;;;;;;;19.00;49.60;;;;;;7787273;22;19942;-73
2023/02/07 01:33:43;;;;;;;;;;;19.10;49.70;;;;;;7787759;22;19918;-73
2023/02/07 01:36:43;;;;;;;;;;;19.10;49.70;;;;;;7787600;22;19903;-72
2023/02/07 01:39:45;;;;;;;;;;;19.10;49.70;;;;;;7787860;22;20354;-73
2023/02/07 01:42:46;;;;;;;;;;;19.00;49.50;;;;;;7787778;22;19909;-73
2023/02/07 01:45:46;;;;;;;;;;;19.10;49.60;;;;;;7787362;22;19946;-73
2023/02/07 01:48:47;;;;;;;;;;;19.10;49.60;;;;;;7782884;22;19911;-73
2023/02/07 01:51:54;;;;;;;;;;;19.10;49.70;;;;;;7787348;22;19957;-72
2023/02/07 01:54:56;;;;;;;;;;;19.10;49.60;;;;;;7787446;22;19953;-72
2023/02/07 01:57:57;;;;;;;;;;;19.10;49.70;;;;;;7787398;22;19913;-73
2023/02/07 02:01:00;;;;;;;;;;;19.10;49.60;;;;;;7783017;22;19907;-73
2023/02/07 02:04:00;;;;;;;;;;;19.00;49.50;;;;;;7787502;22;19903;-73
2023/02/07 02:07:01;;;;;;;;;;;19.00;49.50;;;;;;7787513;22;19930;-72
2023/02/07 02:10:01;;;;;;;;;;;19.10;49.60;;;;;;7787437;22;19911;-73
2023/02/07 02:13:08;;;;;;;;;;;19.00;49.50;;;;;;7789720;22;19903;-73
2023/02/07 02:16:11;;;;;;;;;;;19.00;49.60;;;;;;7789829;22;19994;-73
2023/02/07 02:19:18;;;;;;;;;;;19.00;49.50;;;;;;7784944;22;19903;-73
2023/02/07 02:22:36;;;;;;;;;;;19.00;49.50;;;;;;7790021;22;20529;-72
2023/02/07 02:25:47;;;;;;;;;;;19.00;49.50;;;;;;7789147;22;19957;-73
2023/02/07 02:29:06;;;;;;;;;;;19.00;49.50;;;;;;7789949;22;19903;-73
2023/02/07 02:32:25;;;;;;;;;;;19.00;49.50;;;;;;7789949;22;19985;-72
2023/02/07 02:35:29;;;;;;;;;;;19.10;49.60;;;;;;7784823;22;19911;-73
2023/02/07 02:38:35;;;;;;;;;;;19.00;49.50;;;;;;7789628;22;19908;-73
2023/02/07 02:41:44;;;;;;;;;;;19.10;49.60;;;;;;7789706;22;20323;-74
2023/02/07 02:44:47;;;;;;;;;;;19.00;49.50;;;;;;7789519;22;19968;-73
2023/02/07 02:47:49;;;;;;;;;;;19.00;49.50;;;;;;7782569;22;20354;-73
2023/02/07 02:50:52;;;;;;;;;;;19.00;49.50;;;;;;7789359;22;19911;-73
2023/02/07 02:53:56;;;;;;;;;;;19.10;49.60;;;;;;7789643;22;20448;-72
2023/02/07 02:57:05;;;;;;;;;;;19.00;49.50;;;;;;7789100;22;19911;-73
2023/02/07 03:00:18;;;;;;;;;;;19.00;49.50;;;;;;7789538;22;19903;-72
2023/02/07 03:03:38;;;;;;;;;;;19.10;49.60;;;;;;7789681;22;19949;-73
2023/02/07 03:06:50;;;;;;;;;;;19.00;49.50;;;;;;7789375;22;19955;-73
2023/02/07 03:10:12;;;;;;;;;;;19.00;49.50;;;;;;7784705;22;20503;-73
2023/02/07 03:13:24;;;;;;;;;;;19.00;49.50;;;;;;7789130;22;20310;-73
2023/02/07 03:16:25;;;;;;;;;;;19.00;49.50;;;;;;7789151;22;19903;-74
2023/02/07 03:19:29;;;;;;;;;;;19.00;49.50;;;;;;7762187;22;19973;-73
2023/02/07 03:22:32;;;;;;;;;;;19.00;49.50;;;;;;7788814;22;20373;-72
2023/02/07 03:25:33;;;;;;;;;;;19.00;49.50;;;;;;7789115;22;20305;-73
2023/02/07 03:28:34;;;;;;;;;;;19.00;49.50;;;;;;7788377;22;19910;-72
2023/02/07 03:31:36;;;;;;;;;;;19.00;49.50;;;;;;7761689;22;19911;-72
2023/02/07 03:34:39;;;;;;;;;;;19.00;49.50;;;;;;7761477;22;20503;-73
2023/02/07 03:37:41;;;;;;;;;;;19.00;49.50;;;;;;7787272;22;20411;-73
2023/02/07 03:40:43;;;;;;;;;;;19.00;49.50;;;;;;7787435;22;19986;-70
2023/02/07 03:43:44;;;;;;;;;;;19.00;49.50;;;;;;7787553;22;20251;-73
2023/02/07 03:46:44;;;;;;;;;;;19.00;49.50;;;;;;7787746;22;19908;-72
2023/02/07 03:49:45;;;;;;;;;;;19.00;49.50;;;;;;7783636;22;19903;-73
2023/02/07 03:52:45;;;;;;;;;;;19.00;49.50;;;;;;7788868;22;19945;-73
2023/02/07 03:55:46;;;;;;;;;;;19.00;49.50;;;;;;7788880;22;19946;-73
2023/02/07 03:58:46;;;;;;;;;;;19.00;49.50;;;;;;7788726;22;20013;-73
2023/02/07 04:01:47;;;;;;;;;;;19.00;50.10;;;;;;7788629;22;19910;-73
2023/02/07 04:04:48;;;;;;;;;;;19.00;49.50;;;;;;7788748;22;20408;-73
2023/02/07 04:07:48;;;;;;;;;;;19.00;49.50;;;;;;7778691;22;19986;-73
2023/02/07 04:10:56;;;;;;;;;;;19.00;49.40;;;;;;7779031;22;19915;-73
2023/02/07 04:13:57;;;;;;;;;;;19.00;49.50;;;;;;7788299;22;20396;-73
2023/02/07 04:16:57;;;;;;;;;;;19.00;49.50;;;;;;7761332;22;19904;-73
2023/02/07 04:20:00;;;;;;;;;;;19.00;49.50;;;;;;7788566;22;19978;-73
2023/02/07 04:23:00;;;;;;;;;;;19.00;49.50;;;;;;7781982;22;19903;-73
2023/02/07 04:26:01;;;;;;;;;;;19.00;49.40;;;;;;7788771;22;19953;-73
2023/02/07 04:29:02;;;;;;;;;;;19.00;49.50;;;;;;7788096;22;19942;-73
2023/02/07 04:32:03;;;;;;;;;;;19.00;50.10;;;;;;7788230;22;20341;-73
2023/02/07 04:35:03;;;;;;;;;;;19.00;49.40;;;;;;7787590;22;19911;-73
2023/02/07 04:38:04;;;;;;;;;;;19.00;49.40;;;;;;7777362;22;20285;-72
2023/02/07 04:41:05;;;;;;;;;;;19.00;49.50;;;;;;7788462;22;19907;-74
2023/02/07 04:44:05;;;;;;;;;;;19.00;49.40;;;;;;7787993;22;19922;-72
2023/02/07 04:47:06;;;;;;;;;;;19.00;49.50;;;;;;7778284;22;19934;-72
2023/02/07 04:50:07;;;;;;;;;;;19.00;49.50;;;;;;7780407;22;19914;-73
2023/02/07 04:53:07;;;;;;;;;;;19.00;49.40;;;;;;7788022;22;19903;-74
2023/02/07 04:56:08;;;;;;;;;;;19.00;49.40;;;;;;7788455;22;19918;-72
2023/02/07 05:02:46;;;;;;;;;;;19.00;49.50;;;;;;7787872;22;20381;-73
2023/02/07 05:05:47;;;;;;;;;;;19.00;49.40;;;;;;7788409;22;19954;-73
2023/02/07 05:08:47;;;;;;;;;;;19.00;49.40;;;;;;7787788;22;19903;-73
2023/02/07 05:11:48;;;;;;;;;;;19.00;49.40;;;;;;7788018;22;19903;-74
2023/02/07 05:14:48;;;;;;;;;;;19.00;49.50;;;;;;7787351;22;19957;-73
2023/02/07 05:17:51;;;;;;;;;;;19.00;49.40;;;;;;7787886;22;20327;-72
2023/02/07 05:20:52;;;;;;;;;;;19.10;49.50;;;;;;7787711;22;19981;-73
2023/02/07 05:23:52;;;;;;;;;;;19.10;49.50;;;;;;7787882;22;19907;-73
2023/02/07 05:26:53;;;;;;;;;;;19.10;49.50;;;;;;7787821;22;20294;-73
2023/02/07 05:29:53;;;;;;;;;;;19.10;49.50;;;;;;7787810;22;19911;-73
2023/02/07 05:33:03;;;;;;;;;;;19.10;49.50;;;;;;7787565;22;20494;-73
2023/02/07 05:36:04;;;;;;;;;;;19.00;49.40;;;;;;7787390;22;19956;-73
2023/02/07 05:39:04;;;;;;;;;;;19.00;49.40;;;;;;7776271;22;20465;-74
2023/02/07 05:42:05;;;;;;;;;;;19.10;49.50;;;;;;7787988;22;19907;-73
2023/02/07 05:45:09;;;;;;;;;;;19.00;49.40;;;;;;7787220;22;19915;-73
2023/02/07 05:48:09;;;;;;;;;;;19.10;49.50;;;;;;7787567;22;19911;-72
2023/02/07 05:51:10;;;;;;;;;;;19.00;49.40;;;;;;7787580;22;20561;-73
2023/02/07 05:54:10;;;;;;;;;;;19.10;49.50;;;;;;7778311;22;19958;-73
2023/02/07 05:57:10;;;;;;;;;;;19.10;49.40;;;;;;7787975;22;19931;-72
2023/02/07 06:00:16;;;;;;;;;;;19.10;49.50;;;;;;7780365;22;19910;-72
2023/02/07 06:03:16;;;;;;;;;;;19.00;49.40;;;;;;7786630;22;20014;-72
2023/02/07 06:06:17;;;;;;;;;;;19.00;49.80;;;;;;7787091;22;20327;-72
2023/02/07 06:09:17;;;;;;;;;;;19.10;49.40;;;;;;7787233;22;19904;-73
2023/02/07 06:12:18;;;;;;;;;;;19.10;49.50;;;;;;7787268;22;19911;-73
2023/02/07 06:15:18;;;;;;;;;;;19.00;49.40;;;;;;7787158;22;19918;-73
2023/02/07 06:18:19;;;;;;;;;;;19.10;49.40;;;;;;7782490;22;19903;-73
2023/02/07 06:21:19;;;;;;;;;;;19.00;49.30;;;;;;7787201;22;20192;-73
2023/02/07 06:24:21;;;;;;;;;;;19.10;49.40;;;;;;7787017;22;19944;-73
2023/02/07 06:27:21;;;;;;;;;;;19.10;49.40;;;;;;7787629;22;19903;-73
2023/02/07 06:30:22;;;;;;;;;;;19.10;49.40;;;;;;7786946;22;19976;-74
2023/02/07 06:33:22;;;;;;;;;;;19.00;50.10;;;;;;7786957;22;19914;-73
2023/02/07 06:36:23;;;;;;;;;;;19.10;49.50;;;;;;7787044;22;20311;-73
2023/02/07 06:39:23;;;;;;;;;;;19.00;49.40;;;;;;7787078;22;19910;-73
2023/02/07 06:42:24;;;;;;;;;;;19.10;49.50;;;;;;7785595;22;19907;-73
2023/02/07 06:45:24;;;;;;;;;;;19.00;49.50;;;;;;7785735;22;20345;-72
2023/02/07 06:48:25;;;;;;;;;;;19.00;49.40;;;;;;7786667;22;19953;-73
2023/02/07 06:51:25;;;;;;;;;;;19.10;48.90;;;;;;7787043;22;19911;-73
2023/02/07 06:54:26;;;;;;;;;;;19.10;48.90;;;;;;7786532;22;20327;-73
2023/02/07 06:57:26;;;;;;;;;;;19.10;48.90;;;;;;7787788;22;19910;-73
2023/02/07 07:00:27;;;;;;;;;;;19.10;49.00;;;;;;7789561;22;19982;-73
2023/02/07 07:03:28;;;;;;;;;;;19.10;49.60;;;;;;7791764;22;19990;-72
2023/02/07 07:06:28;;;;;;;;;;;19.10;48.90;;;;;;7791221;22;19961;-73
2023/02/07 07:09:29;;;;;;;;;;;19.10;48.90;;;;;;7791707;22;19926;-73
2023/02/07 07:12:29;;;;;;;;;;;19.10;48.90;;;;;;7791835;22;19910;-73
2023/02/07 07:15:30;;;;;;;;;;;19.10;48.90;;;;;;7791001;22;19911;-73
2023/02/07 07:18:30;;;;;;;;;;;19.10;48.90;;;;;;7790112;22;19914;-72
2023/02/07 07:21:31;;;;;;;;;;;19.10;48.90;;;;;;7790168;22;20354;-73
2023/02/07 07:24:31;;;;;;;;;;;19.10;48.80;;;;;;7763041;22;19907;-72
2023/02/07 07:27:32;;;;;;;;;;;19.10;48.80;;;;;;7790662;22;19911;-72
2023/02/07 07:30:33;;;;;;;;;;;19.10;48.90;;;;;;7791461;22;19903;-73
2023/02/07 07:33:33;;;;;;;;;;;19.10;48.90;;;;;;7791583;22;19904;-72
2023/02/07 07:36:34;;;;;;;;;;;19.10;48.80;;;;;;7790913;22;20320;-73
2023/02/07 07:39:34;;;;;;;;;;;19.10;48.80;;;;;;7791419;22;19914;-73
2023/02/07 07:42:35;;;;;;;;;;;19.20;48.90;;;;;;7791161;22;19907;-72
2023/02/07 07:45:36;;;;;;;;;;;19.20;48.90;;;;;;7790654;22;19931;-73
2023/02/07 07:48:36;;;;;;;;;;;19.20;48.90;;;;;;7791521;22;19903;-73
2023/02/07 07:51:37;;;;;;;;;;;19.10;48.80;;;;;;7791216;22;19950;-73
2023/02/07 07:54:37;;;;;;;;;;;19.20;48.90;;;;;;7763574;22;20270;-73
2023/02/07 07:57:39;;;;;;;;;;;19.20;48.90;;;;;;7790913;22;19930;-72
2023/02/07 08:00:39;;;;;;;;;;;19.10;48.80;;;;;;7755683;22;19903;-72
2023/02/07 08:03:40;;;;;;;;;;;19.20;48.90;;;;;;7789610;22;19930;-72
2023/02/07 08:06:40;;;;;;;;;;;19.20;49.00;;;;;;7789616;22;19938;-72
2023/02/07 08:09:41;;;;;;;;;;;19.20;49.00;;;;;;7789478;22;19910;-72
2023/02/07 08:12:41;;;;;;;;;;;19.20;49.00;;;;;;7789717;22;19903;-73
2023/02/07 08:15:42;;;;;;;;;;;19.20;49.00;;;;;;7789698;22;19912;-72
2023/02/07 08:18:42;;;;;;;;;;;19.20;49.00;;;;;;7791164;22;20415;-73
2023/02/07 08:21:43;;;;;;;;;;;19.20;49.10;;;;;;7790922;22;19904;-73
2023/02/07 08:24:43;;;;;;;;;;;19.10;49.00;;;;;;7790977;22;19961;-73
2023/02/07 08:27:44;;;;;;;;;;;19.10;49.10;;;;;;7790973;22;19914;-72
2023/02/07 08:30:47;;;;;;;;;;;19.10;49.10;;;;;;7790730;22;19953;-73
2023/02/07 08:33:48;;;;;;;;;;;19.10;49.10;;;;;;7790876;22;19931;-72
2023/02/07 08:36:49;;;;;;;;;;;19.10;49.10;;;;;;7786000;22;20653;-73
2023/02/07 08:39:51;;;;;;;;;;;19.10;49.10;;;;;;7791006;22;19931;-73
2023/02/07 08:42:52;;;;;;;;;;;19.10;49.20;;;;;;7791025;22;19949;-73
2023/02/07 08:45:52;;;;;;;;;;;19.10;49.20;;;;;;7790478;22;20208;-73
2023/02/07 08:48:53;;;;;;;;;;;19.10;49.20;;;;;;7790939;22;19914;-73
2023/02/07 08:51:53;;;;;;;;;;;19.10;49.20;;;;;;7790689;22;20729;-73
2023/02/07 08:54:54;;;;;;;;;;;19.10;49.20;;;;;;7790940;22;19919;-73
2023/02/07 08:57:55;;;;;;;;;;;19.10;49.20;;;;;;7790869;22;19907;-73
2023/02/07 09:00:55;;;;;;;;;;;19.10;49.20;;;;;;7790823;22;20231;-73
2023/02/07 09:03:56;;;;;;;;;;;19.10;49.20;;;;;;7790876;22;20271;-73
2023/02/07 09:06:56;;;;;;;;;;;19.10;49.20;;;;;;7790247;22;19910;-73
2023/02/07 09:09:57;;;;;;;;;;;19.10;49.20;;;;;;7790297;22;19907;-73
2023/02/07 09:12:57;;;;;;;;;;;19.10;49.20;;;;;;7790915;22;19903;-72
2023/02/07 09:15:58;;;;;;;;;;;19.10;49.20;;;;;;7790087;22;19919;-72
2023/02/07 09:18:58;;;;;;;;;;;19.10;49.20;;;;;;7790816;22;19904;-73
2023/02/07 09:21:59;;;;;;;;;;;19.10;49.20;;;;;;7780458;22;19907;-72
2023/02/07 09:25:00;;;;;;;;;;;19.10;49.20;;;;;;7790357;22;20315;-73
2023/02/07 09:28:00;;;;;;;;;;;19.10;49.20;;;;;;7790181;22;20283;-73
2023/02/07 09:31:06;;;;;;;;;;;19.10;49.20;;;;;;7790686;22;19930;-73
2023/02/07 09:34:07;;;;;;;;;;;19.10;49.20;;;;;;7790280;22;19915;-72
2023/02/07 09:37:07;;;;;;;;;;;19.10;49.20;;;;;;7790444;22;19949;-73
2023/02/07 09:40:12;;;;;;;;;;;19.10;49.20;;;;;;7789917;22;19939;-73
2023/02/07 09:43:13;;;;;;;;;;;19.10;49.30;;;;;;7790542;22;19910;-73
2023/02/07 09:46:18;;;;;;;;;;;19.10;49.30;;;;;;7789677;22;20323;-73
2023/02/07 09:49:25;;;;;;;;;;;19.10;49.30;;;;;;7790257;22;19913;-72
2023/02/07 09:52:31;;;;;;;;;;;19.10;49.30;;;;;;7790018;22;19904;-73
2023/02/07 09:55:46;;;;;;;;;;;19.10;49.30;;;;;;7789979;22;19918;-72
2023/02/07 09:58:58;;;;;;;;;;;19.10;49.30;;;;;;7790562;22;19910;-73
2023/02/07 10:02:00;;;;;;;;;;;19.10;49.40;;;;;;7790081;22;19904;-72
2023/02/07 10:05:03;;;;;;;;;;;19.10;49.40;;;;;;7790455;22;19982;-73
2023/02/07 10:08:03;;;;;;;;;;;19.10;49.40;;;;;;7789776;22;19917;-72
2023/02/07 10:11:07;;;;;;;;;;;19.10;49.40;;;;;;7780484;22;19903;-72
2023/02/07 10:14:26;;;;;;;;;;;19.10;49.40;;;;;;7790395;22;20004;-73
2023/02/07 10:17:32;;;;;;;;;;;19.10;49.40;;;;;;7789933;22;19986;-73
2023/02/07 10:20:37;;;;;;;;;;;19.10;50.10;;;;;;7789989;22;19986;-73
2023/02/07 10:23:47;;;;;;;;;;;19.10;49.40;;;;;;7789593;22;19907;-72
2023/02/07 10:26:52;;;;;;;;;;;19.10;49.40;;;;;;7789943;22;19903;-71
2023/02/07 10:30:08;;;;;;;;;;;19.10;49.40;;;;;;7790271;22;20643;-72
2023/02/07 10:33:16;;;;;;;;;;;19.10;49.30;;;;;;7791143;22;19910;-72
2023/02/07 10:36:17;;;;;;;;;;;19.10;49.30;;;;;;7792590;22;19918;-72
2023/02/07 10:39:21;;;;;;;;;;;19.10;49.30;;;;;;7792735;22;20243;-72
2023/02/07 10:42:23;;;;;;;;;;;19.10;49.30;;;;;;7781559;22;19911;-73
2023/02/07 10:45:23;;;;;;;;;;;19.10;49.40;;;;;;7787902;22;19941;-72
2023/02/07 10:48:24;;;;;;;;;;;19.10;49.30;;;;;;7792159;22;19903;-72
2023/02/07 10:51:27;;;;;;;;;;;19.10;49.30;;;;;;7792306;22;19942;-72
2023/02/07 10:54:28;;;;;;;;;;;19.10;49.40;;;;;;7787154;22;19915;-72
2023/02/07 10:57:29;;;;;;;;;;;19.10;49.40;;;;;;7788881;22;19907;-72
2023/02/07 11:00:31;;;;;;;;;;;19.10;49.50;;;;;;7790635;22;19941;-73
2023/02/07 11:03:31;;;;;;;;;;;19.10;49.50;;;;;;7791487;22;19965;-73
2023/02/07 11:06:33;;;;;;;;;;;19.20;49.60;;;;;;7783992;22;19982;-72
2023/02/07 11:09:36;;;;;;;;;;;19.20;49.50;;;;;;7791685;22;19926;-72
2023/02/07 11:12:43;;;;;;;;;;;19.20;49.60;;;;;;7777516;22;19903;-73
2023/02/07 11:15:43;;;;;;;;;;;19.10;49.50;;;;;;7791444;22;19915;-73
2023/02/07 11:18:44;;;;;;;;;;;19.10;49.60;;;;;;7790777;22;20357;-72
2023/02/07 11:21:45;;;;;;;;;;;19.10;49.60;;;;;;7790694;22;19914;-73
2023/02/07 11:24:46;;;;;;;;;;;19.10;49.70;;;;;;7790130;22;19934;-73
2023/02/07 11:27:47;;;;;;;;;;;19.10;49.80;;;;;;7791076;22;20032;-73
2023/02/07 11:31:01;;;;;;;;;;;19.10;47.80;;;;;;7783174;22;19903;-73
2023/02/07 11:34:06;;;;;;;;;;;19.00;46.70;;;;;;7790328;22;19911;-73
2023/02/07 11:37:10;;;;;;;;;;;19.10;46.80;;;;;;7791084;22;19992;-75
2023/02/07 11:40:19;;;;;;;;;;;19.10;46.90;;;;;;7777159;22;20369;-73
2023/02/07 11:43:21;;;;;;;;;;;19.10;47.10;;;;;;7780805;22;20780;-73
2023/02/07 11:46:28;;;;;;;;;;;19.10;47.50;;;;;;7785993;22;19910;-73
2023/02/07 11:49:44;;;;;;;;;;;19.10;47.70;;;;;;7790420;22;19904;-74
2023/02/07 11:52:49;;;;;;;;;;;19.10;47.90;;;;;;7790546;22;19925;-71
2023/02/07 11:55:51;;;;;;;;;;;19.10;48.00;;;;;;7781121;22;19918;-73
2023/02/07 11:58:53;;;;;;;;;;;19.10;47.50;;;;;;7790931;22;19903;-73
2023/02/07 12:01:55;;;;;;;;;;;19.10;47.50;;;;;;7790322;22;19914;-73
2023/02/07 12:05:07;;;;;;;;;;;19.10;47.70;;;;;;7791071;22;19977;-73
2023/02/07 12:08:13;;;;;;;;;;;19.10;47.80;;;;;;7780526;22;19910;-74
2023/02/07 12:11:19;;;;;;;;;;;19.10;48.00;;;;;;7790306;22;20029;-73
2023/02/07 12:14:28;;;;;;;;;;;19.10;47.80;;;;;;7790113;22;19911;-73
2023/02/07 12:17:38;;;;;;;;;;;19.10;48.10;;;;;;7782907;22;19904;-73
2023/02/07 12:20:51;;;;;;;;;;;19.10;48.40;;;;;;7790481;22;19904;-72
2023/02/07 12:23:59;;;;;;;;;;;19.10;48.50;;;;;;7789993;22;19903;-73
2023/02/07 12:27:15;;;;;;;;;;;19.10;49.40;;;;;;7790413;22;19982;-75
2023/02/07 12:30:34;;;;;;;;;;;19.10;48.70;;;;;;7790429;22;19903;-73
2023/02/07 12:33:41;;;;;;;;;;;19.10;48.70;;;;;;7789710;22;19907;-72
2023/02/07 12:36:45;;;;;;;;;;;19.10;48.80;;;;;;7790233;22;19907;-73
2023/02/07 12:39:53;;;;;;;;;;;19.10;48.90;;;;;;7790462;22;20319;-73
2023/02/07 12:43:00;;;;;;;;;;;19.10;48.90;;;;;;7782576;22;19910;-72
2023/02/07 12:46:00;;;;;;;;;;;19.10;49.00;;;;;;7790254;22;19961;-72
2023/02/07 12:49:20;;;;;;;;;;;19.10;49.00;;;;;;7789588;22;20323;-72
2023/02/07 12:52:33;;;;;;;;;;;19.10;49.00;;;;;;7784838;22;19935;-73
2023/02/07 12:55:39;;;;;;;;;;;19.10;49.10;;;;;;7789127;22;19912;-73
2023/02/07 12:58:46;;;;;;;;;;;19.10;49.10;;;;;;7748678;22;19910;-72
2023/02/07 13:01:51;;;;;;;;;;;19.10;49.20;;;;;;7782458;22;19982;-73
2023/02/07 13:05:10;;;;;;;;;;;19.10;49.20;;;;;;7788804;22;19935;-72
2023/02/07 13:08:31;;;;;;;;;;;19.10;49.20;;;;;;7789561;22;19903;-72
2023/02/07 13:11:45;;;;;;;;;;;19.10;49.20;;;;;;7789644;22;19994;-72
2023/02/07 13:14:48;;;;;;;;;;;19.20;49.50;;;;;;7789182;22;19915;-71
2023/02/07 13:17:58;;;;;;;;;;;19.20;49.70;;;;;;7789461;22;20389;-72
2023/02/07 13:21:09;;;;;;;;;;;19.20;49.30;;;;;;7789011;22;19987;-72
2023/02/07 13:24:12;;;;;;;;;;;19.20;49.20;;;;;;7788200;22;19907;-72
2023/02/07 13:27:16;;;;;;;;;;;19.20;49.30;;;;;;7789621;22;19904;-73
2023/02/07 13:30:18;;;;;;;;;;;19.20;48.10;;;;;;7789413;22;19949;-74
2023/02/07 13:33:18;;;;;;;;;;;19.10;48.20;;;;;;7789586;22;19927;-73
2023/02/07 13:36:27;;;;;;;;;;;19.20;48.30;;;;;;7789273;22;20014;-72
2023/02/07 13:39:33;;;;;;;;;;;19.20;47.90;;;;;;7789589;22;19993;-74
2023/02/07 13:42:39;;;;;;;;;;;19.20;47.90;;;;;;7789746;22;20265;-73
2023/02/07 13:46:03;;;;;;;;;;;19.20;47.90;;;;;;7789333;22;19922;-72
2023/02/07 13:49:05;;;;;;;;;;;19.20;48.20;;;;;;7788899;22;19960;-72
2023/02/07 13:52:08;;;;;;;;;;;19.20;48.20;;;;;;7789489;22;19903;-72
2023/02/07 13:55:38;;;;;;;;;;;19.20;48.30;;;;;;7789228;22;19937;-72
2023/02/07 14:01:58;;;;;;;;;;;19.20;48.50;;;;;;7786967;22;19903;-73
2023/02/07 14:05:07;;;;;;;;;;;19.10;48.40;;;;;;7760633;22;19914;-73
2023/02/07 14:08:17;;;;;;;;;;;19.20;48.70;;;;;;7789224;22;19914;-73
2023/02/07 14:11:26;;;;;;;;;;;19.10;48.50;;;;;;7790060;22;19903;-72
2023/02/07 14:14:31;;;;;;;;;;;19.20;49.00;;;;;;7790736;22;19998;-72
2023/02/07 14:17:32;;;;;;;;;;;19.10;48.60;;;;;;7791257;22;19986;-71
2023/02/07 14:20:35;;;;;;;;;;;19.10;49.30;;;;;;7790567;22;20369;-72
2023/02/07 14:24:08;;;;;;;;;;;19.10;48.70;;;;;;7790742;22;19907;-73
2023/02/07 14:27:30;;;;;;;;;;;19.10;48.90;;;;;;7705566;22;19910;-73
2023/02/07 14:30:35;;;;;;;;;;;19.10;48.80;;;;;;7782951;22;20303;-73
2023/02/07 14:33:37;;;;;;;;;;;19.10;48.90;;;;;;7778949;22;19914;-71
2023/02/07 14:36:38;;;;;;;;;;;19.10;49.10;;;;;;7789230;22;19908;-73
2023/02/07 14:39:38;;;;;;;;;;;19.10;49.00;;;;;;7790093;22;19907;-72
2023/02/07 14:42:39;;;;;;;;;;;19.10;49.00;;;;;;7790294;22;19903;-73
2023/02/07 14:45:56;;;;;;;;;;;19.10;49.10;;;;;;7790301;22;20256;-71
2023/02/07 14:48:59;;;;;;;;;;;19.20;49.20;;;;;;7789949;22;19931;-71
2023/02/07 14:52:06;;;;;;;;;;;19.10;49.20;;;;;;7790113;22;20381;-73
2023/02/07 14:55:13;;;;;;;;;;;19.10;49.20;;;;;;7790207;22;19986;-72
2023/02/07 14:58:24;;;;;;;;;;;19.10;49.90;;;;;;7790542;22;19909;-73
2023/02/07 15:01:25;;;;;;;;;;;19.10;49.20;;;;;;7789904;22;19948;-73
2023/02/07 15:04:25;;;;;;;;;;;19.10;49.20;;;;;;7790191;22;19904;-73
2023/02/07 15:07:26;;;;;;;;;;;19.10;49.30;;;;;;7790157;22;19904;-72
2023/02/07 15:10:26;;;;;;;;;;;19.10;49.30;;;;;;7789520;22;19907;-74
2023/02/07 15:13:31;;;;;;;;;;;19.10;49.30;;;;;;7790594;22;19910;-72
2023/02/07 15:16:37;;;;;;;;;;;19.10;49.30;;;;;;7789974;22;19911;-72
2023/02/07 15:19:38;;;;;;;;;;;19.10;49.40;;;;;;7789588;22;19907;-73
2023/02/07 15:22:39;;;;;;;;;;;19.10;49.40;;;;;;7790060;22;20283;-73
2023/02/07 15:25:42;;;;;;;;;;;19.10;49.40;;;;;;7790395;22;19904;-73
2023/02/07 15:28:43;;;;;;;;;;;19.10;50.10;;;;;;7790044;22;19914;-72
2023/02/07 15:31:43;;;;;;;;;;;19.10;49.40;;;;;;7784974;22;19903;-72
2023/02/07 15:34:44;;;;;;;;;;;19.10;49.60;;;;;;7790075;22;19937;-72
2023/02/07 15:37:47;;;;;;;;;;;19.20;49.70;;;;;;7789824;22;19915;-72
2023/02/07 15:40:48;;;;;;;;;;;19.20;49.60;;;;;;7789136;22;19911;-74
2023/02/07 15:43:57;;;;;;;;;;;19.20;49.60;;;;;;7790074;22;19920;-73
2023/02/07 15:46:59;;;;;;;;;;;19.20;49.50;;;;;;7789854;22;19937;-73
2023/02/07 15:50:22;;;;;;;;;;;19.20;49.60;;;;;;7785745;22;20319;-72
2023/02/07 15:53:25;;;;;;;;;;;19.10;49.50;;;;;;7762366;22;19914;-73
2023/02/07 15:56:28;;;;;;;;;;;19.10;49.50;;;;;;7786824;22;19911;-72
2023/02/07 15:59:30;;;;;;;;;;;19.10;49.50;;;;;;7786161;22;19903;-73
2023/02/07 16:02:33;;;;;;;;;;;19.10;49.50;;;;;;7781526;22;19946;-73
2023/02/07 16:05:36;;;;;;;;;;;19.10;49.30;;;;;;7787443;22;19990;-71
2023/02/07 16:08:38;;;;;;;;;;;19.10;49.50;;;;;;7786204;22;19982;-72
2023/02/07 16:11:38;;;;;;;;;;;19.10;49.40;;;;;;7785250;22;19908;-72
2023/02/07 16:14:39;;;;;;;;;;;19.10;49.30;;;;;;7786980;22;19912;-73
2023/02/07 16:17:43;;;;;;;;;;;19.10;49.40;;;;;;7786578;22;20021;-72
2023/02/07 16:20:43;;;;;;;;;;;19.10;49.30;;;;;;7786697;22;19908;-73
2023/02/07 16:23:45;;;;;;;;;;;19.20;49.50;;;;;;7785290;22;20354;-73
2023/02/07 16:26:48;;;;;;;;;;;19.10;49.40;;;;;;7786998;22;19904;-73
2023/02/07 16:29:48;;;;;;;;;;;19.10;49.40;;;;;;7785346;22;19915;-72
2023/02/07 16:32:49;;;;;;;;;;;19.10;49.50;;;;;;7786696;22;20154;-72
2023/02/07 16:35:49;;;;;;;;;;;19.20;50.20;;;;;;7786726;22;19911;-72
2023/02/07 16:38:51;;;;;;;;;;;19.10;49.40;;;;;;7786403;22;19903;-72
2023/02/07 16:42:12;;;;;;;;;;;19.10;49.60;;;;;;7785866;22;19903;-72
2023/02/07 16:45:17;;;;;;;;;;;19.10;49.30;;;;;;7786184;22;19968;-73
2023/02/07 16:48:18;;;;;;;;;;;19.10;49.20;;;;;;7786559;22;20285;-73
2023/02/07 16:51:18;;;;;;;;;;;19.10;48.80;;;;;;7785966;22;19907;-72
2023/02/07 16:54:19;;;;;;;;;;;19.10;48.40;;;;;;7785865;22;19911;-72
2023/02/07 16:57:19;;;;;;;;;;;19.10;48.80;;;;;;7786261;22;19907;-73
2023/02/07 17:00:24;;;;;;;;;;;19.10;48.80;;;;;;7787468;22;20238;-72
2023/02/07 17:03:24;;;;;;;;;;;19.10;49.00;;;;;;7785375;22;19907;-72
2023/02/07 17:06:25;;;;;;;;;;;19.20;49.40;;;;;;7597835;23;19957;-72
2023/02/07 17:09:25;;;;;;;;;;;19.20;49.10;;;;;;7598458;23;20457;-72
2023/02/07 17:12:26;;;;;;;;;;;19.20;49.10;;;;;;7598526;23;20280;-73
2023/02/07 17:15:26;;;;;;;;;;;19.20;49.20;;;;;;7595878;23;19919;-72
2023/02/07 17:18:27;;;;;;;;;;;19.20;49.30;;;;;;7596693;23;19932;-73
2023/02/07 17:21:27;;;;;;;;;;;19.20;49.30;;;;;;7595546;23;19913;-72
2023/02/07 17:24:28;;;;;;;;;;;19.10;49.20;;;;;;7596140;23;19960;-72
2023/02/07 17:27:28;;;;;;;;;;;19.10;49.20;;;;;;7595781;23;19944;-72
2023/02/07 17:30:33;;;;;;;;;;;19.10;48.80;;;;;;7595450;23;20399;-72
2023/02/07 17:33:34;;;;;;;;;;;19.10;49.20;;;;;;7596786;23;20475;-73
2023/02/07 17:36:34;;;;;;;;;;;19.10;49.20;;;;;;7656445;22;19915;-71
2023/02/07 17:39:35;;;;;;;;;;;19.10;49.70;;;;;;7785816;22;20629;-71
2023/02/07 17:42:35;;;;;;;;;;;19.20;49.70;;;;;;7785970;22;19914;-72
2023/02/07 17:45:36;;;;;;;;;;;19.20;49.40;;;;;;7785773;22;20507;-73
2023/02/07 17:48:37;;;;;;;;;;;19.20;49.40;;;;;;7786802;22;19950;-72
2023/02/07 17:51:37;;;;;;;;;;;19.20;49.80;;;;;;7784062;22;19986;-74